Time;durP1;ratioP1;P1;durP2;ratioP2;P2;SDS_P1;SDS_P2;PMS_P1;PMS_P2;Temp;Humidity;BMP_temperature;BMP_pressure;BME280_temperature;BME280_humidity;BME280_pressure;Samples;Min_cycle;Max_cycle;Signal;HPM_P1;HPM_P2
2022/12/19 00:00:20;;;;;;;65.00;22.40;;;;;;;-0.37;100.00;101727.25;5094401;28;20466;-79
2022/12/19 00:02:45;;;;;;;64.82;23.40;;;;;;;-0.33;100.00;101714.09;5058894;28;20063;-80
2022/12/19 00:05:12;;;;;;;67.05;23.20;;;;;;;-0.28;100.00;101723.50;5076524;28;20046;-80
2022/12/19 00:07:37;;;;;;;60.95;23.85;;;;;;;-0.30;100.00;101720.09;5075601;28;20426;-79
2022/12/19 00:10:03;;;;;;;56.00;24.10;;;;;;;-0.30;100.00;101712.25;5094379;28;20032;-80
2022/12/19 00:12:29;;;;;;;60.65;23.35;;;;;;;-0.28;100.00;101725.28;5093965;28;20039;-79
2022/12/19 00:14:54;;;;;;;66.38;24.35;;;;;;;-0.27;100.00;101727.84;5093618;28;20028;-79
2022/12/19 00:17:20;;;;;;;62.95;23.27;;;;;;;-0.22;100.00;101715.47;5093668;28;20150;-79
2022/12/19 00:19:45;;;;;;;63.80;22.80;;;;;;;-0.21;100.00;101700.63;5093416;28;20024;-79
2022/12/19 00:22:11;;;;;;;65.55;23.65;;;;;;;-0.26;100.00;101692.91;5093153;28;20115;-80
2022/12/19 00:24:36;;;;;;;51.92;21.27;;;;;;;-0.25;100.00;101683.34;5075405;28;20031;-79
2022/12/19 00:27:01;;;;;;;62.33;22.48;;;;;;;-0.23;100.00;101689.38;5093068;28;20028;-79
2022/12/19 00:29:27;;;;;;;55.13;22.10;;;;;;;-0.20;100.00;101686.66;5093186;28;20032;-80
2022/12/19 00:31:52;;;;;;;59.47;22.30;;;;;;;-0.14;100.00;101693.44;5075254;28;20032;-79
2022/12/19 00:34:17;;;;;;;52.58;21.75;;;;;;;-0.14;100.00;101678.59;5093536;28;20033;-80
2022/12/19 00:36:43;;;;;;;55.50;22.02;;;;;;;-0.13;100.00;101677.69;5093483;28;20063;-79
2022/12/19 00:39:10;;;;;;;55.75;21.52;;;;;;;-0.11;100.00;101668.03;5093246;28;20487;-80
2022/12/19 00:41:38;;;;;;;50.40;21.33;;;;;;;-0.10;100.00;101666.28;5075405;28;20028;-80
2022/12/19 00:44:06;;;;;;;58.80;20.80;;;;;;;-0.09;100.00;101661.00;5093109;28;20036;-82
2022/12/19 00:46:33;;;;;;;60.47;22.48;;;;;;;-0.12;100.00;101655.88;5094224;28;20075;-80
2022/12/19 00:48:59;;;;;;;58.22;21.17;;;;;;;-0.09;100.00;101668.84;5097568;28;20031;-80
2022/12/19 00:51:26;;;;;;;53.83;22.00;;;;;;;-0.07;100.00;101669.66;5097165;28;20032;-80
2022/12/19 00:53:53;;;;;;;59.13;23.08;;;;;;;-0.05;100.00;101657.34;5097291;28;20110;-80
2022/12/19 00:56:24;;;;;;;54.97;22.80;;;;;;;-0.01;100.00;101645.91;5097827;28;20036;-80
2022/12/19 00:58:51;;;;;;;60.65;22.13;;;;;;;-0.03;100.00;101649.47;5097255;28;20032;-81
2022/12/19 01:01:19;;;;;;;61.03;22.17;;;;;;;-0.04;100.00;101632.06;5097706;28;20028;-80
2022/12/19 01:03:45;;;;;;;52.10;22.05;;;;;;;-0.07;100.00;101637.41;5097026;28;20044;-80
2022/12/19 01:06:11;;;;;;;54.40;22.27;;;;;;;0.01;100.00;101626.69;5097566;28;20055;-80
2022/12/19 01:08:36;;;;;;;65.72;23.52;;;;;;;0.03;100.00;101628.34;5096965;28;20081;-80
2022/12/19 01:11:02;;;;;;;56.70;21.92;;;;;;;0.13;100.00;101626.25;5079178;28;20040;-80
2022/12/19 01:13:29;;;;;;;58.97;21.55;;;;;;;0.11;100.00;101639.38;5097308;28;20036;-80
2022/12/19 01:15:55;;;;;;;59.45;22.73;;;;;;;0.13;100.00;101637.56;5096756;28;20379;-81
2022/12/19 01:18:21;;;;;;;69.00;23.60;;;;;;;0.13;100.00;101629.72;5096830;28;20066;-80
2022/12/19 01:20:47;;;;;;;57.83;22.92;;;;;;;0.14;100.00;101623.59;5097004;28;20036;-81
2022/12/19 01:23:14;;;;;;;58.80;22.80;;;;;;;0.20;100.00;101617.28;5097015;28;20114;-80
2022/12/19 01:25:40;;;;;;;58.35;23.08;;;;;;;0.20;100.00;101619.91;5096705;28;20059;-80
2022/12/19 01:28:06;;;;;;;59.38;22.90;;;;;;;0.27;100.00;101616.16;5097030;28;20106;-80
2022/12/19 01:30:33;;;;;;;62.63;24.15;;;;;;;0.30;100.00;101609.94;5097023;28;20063;-81
2022/12/19 01:32:59;;;;;;;55.25;23.20;;;;;;;0.32;100.00;101605.53;5096857;28;20035;-81
2022/12/19 01:35:25;;;;;;;60.38;23.13;;;;;;;0.34;100.00;101612.44;5097312;28;20115;-80
2022/12/19 01:37:51;;;;;;;65.80;25.63;;;;;;;0.36;100.00;101586.19;5096277;28;20020;-80
2022/12/19 01:40:18;;;;;;;62.63;25.58;;;;;;;0.43;100.00;101584.19;5096772;28;20028;-80
2022/12/19 01:42:44;;;;;;;64.95;23.80;;;;;;;0.42;100.00;101590.34;5096444;28;20054;-81
2022/12/19 01:45:09;;;;;;;71.00;24.05;;;;;;;0.44;100.00;101597.22;5096568;28;20531;-81
2022/12/19 01:47:44;;;;;;;63.72;24.58;;;;;;;0.46;100.00;101582.34;5096434;28;20090;-80
2022/12/19 01:50:14;;;;;;;56.40;23.25;;;;;;;0.45;100.00;101583.25;5096995;28;20457;-80
2022/12/19 01:52:40;;;;;;;65.43;23.48;;;;;;;0.49;100.00;101583.97;5096004;28;20063;-80
2022/12/19 01:55:07;;;;;;;57.08;22.30;;;;;;;0.46;100.00;101581.47;5096242;28;20028;-80
2022/12/19 01:57:32;;;;;;;68.18;24.40;;;;;;;0.45;100.00;101571.88;5095996;28;20066;-80
2022/12/19 01:59:59;;;;;;;71.03;23.83;;;;;;;0.46;100.00;101578.84;5095630;28;20099;-80
2022/12/19 02:02:32;;;;;;;66.35;24.05;;;;;;;0.52;100.00;101571.63;5096131;28;20089;-80
2022/12/19 02:05:00;;;;;;;62.97;24.85;;;;;;;0.53;100.00;101564.63;5096164;28;20318;-80
2022/12/19 02:07:27;;;;;;;70.50;23.48;;;;;;;0.57;100.00;101561.00;5095936;28;20116;-79
2022/12/19 02:09:55;;;;;;;63.35;22.98;;;;;;;0.59;100.00;101556.53;5077665;28;20398;-80
2022/12/19 02:12:23;;;;;;;60.70;24.77;;;;;;;0.59;100.00;101548.69;5095937;28;20020;-80
2022/12/19 02:14:48;;;;;;;66.97;25.17;;;;;;;0.64;100.00;101546.75;5095707;28;20118;-80
2022/12/19 02:17:40;;;;;;;61.53;25.05;;;;;;;0.67;100.00;101537.91;5096127;28;20114;-80
2022/12/19 02:20:17;;;;;;;60.53;25.80;;;;;;;0.74;100.00;101523.66;5082969;28;20032;-79
2022/12/19 02:23:13;;;;;;;73.68;25.48;;;;;;;0.77;100.00;101518.31;5095953;28;20097;-80
2022/12/19 02:26:06;;;;;;;66.22;24.48;;;;;;;0.80;100.00;101519.97;5096146;28;20015;-79
2022/12/19 02:29:05;;;;;;;65.88;23.38;;;;;;;0.84;100.00;101511.91;5095610;28;20039;-79
2022/12/19 02:31:42;;;;;;;72.72;25.15;;;;;;;0.88;100.00;101508.28;5095430;28;20058;-79
2022/12/19 02:34:13;;;;;;;64.68;24.02;;;;;;;0.96;100.00;101501.88;5095762;28;20027;-80
2022/12/19 02:36:47;;;;;;;65.22;24.48;;;;;;;1.00;100.00;101508.69;5095139;28;20028;-79
2022/12/19 02:39:40;;;;;;;66.40;24.85;;;;;;;1.01;100.00;101495.53;5095802;28;20441;-80
2022/12/19 02:42:09;;;;;;;57.85;23.08;;;;;;;1.05;100.00;101504.13;5095200;28;20027;-80
2022/12/19 02:44:48;;;;;;;59.53;22.70;;;;;;;1.05;100.00;101498.91;5096008;28;20024;-79
2022/12/19 02:47:15;;;;;;;61.75;22.88;;;;;;;1.04;100.00;101502.41;5095745;28;20024;-79
2022/12/19 02:49:40;;;;;;;62.88;23.60;;;;;;;1.08;100.00;101488.28;5095202;28;20131;-79
2022/12/19 02:52:08;;;;;;;65.15;23.00;;;;;;;1.08;100.00;101485.66;5096163;28;20090;-79
2022/12/19 02:54:34;;;;;;;54.67;22.13;;;;;;;1.12;100.00;101492.50;5095218;28;20028;-79
2022/12/19 02:57:15;;;;;;;57.03;22.10;;;;;;;1.19;100.00;101490.47;5094771;28;20028;-79
2022/12/19 02:59:56;;;;;;;48.17;20.90;;;;;;;1.26;100.00;101489.28;5095049;28;20060;-78
2022/12/19 03:02:37;;;;;;;56.20;21.02;;;;;;;1.29;100.00;101478.69;5095367;28;20032;-78
2022/12/19 03:05:23;;;;;;;54.75;21.27;;;;;;;1.39;100.00;101482.63;5095302;28;20056;-78
2022/12/19 03:07:51;;;;;;;46.80;20.13;;;;;;;1.41;100.00;101477.31;5095067;28;20036;-79
2022/12/19 03:10:30;;;;;;;53.10;20.63;;;;;;;1.54;100.00;101477.66;5094666;28;20115;-79
2022/12/19 03:13:01;;;;;;;50.03;20.13;;;;;;;1.60;100.00;101485.28;5094464;28;20427;-79
2022/12/19 03:15:27;;;;;;;45.00;19.17;;;;;;;1.68;100.00;101479.69;5095270;28;20110;-78
2022/12/19 03:17:58;;;;;;;43.10;18.45;;;;;;;1.69;100.00;101477.00;5094399;28;20109;-80
2022/12/19 03:20:46;;;;;;;44.80;18.30;;;;;;;1.72;100.00;101473.41;5094228;28;20020;-78
2022/12/19 03:23:12;;;;;;;45.97;18.92;;;;;;;1.77;100.00;101459.13;5094104;28;20062;-80
2022/12/19 03:25:42;;;;;;;47.45;19.63;;;;;;;1.85;100.00;101457.94;5094915;28;20024;-79
2022/12/19 03:28:13;;;;;;;53.83;19.52;;;;;;;1.87;100.00;101462.22;5094003;28;20361;-78
2022/12/19 03:30:41;;;;;;;39.38;18.00;;;;;;;1.96;100.00;101457.47;5095479;28;20030;-78
2022/12/19 03:33:09;;;;;;;42.20;18.48;;;;;;;1.99;100.00;101471.31;5094664;28;20024;-78
2022/12/19 03:35:36;;;;;;;40.17;18.27;;;;;;;2.02;100.00;101457.22;5094216;28;20036;-78
2022/12/19 03:38:03;;;;;;;42.97;18.63;;;;;;;2.06;100.00;101458.75;5094230;28;20032;-77
2022/12/19 03:40:31;;;;;;;42.90;18.27;;;;;;;2.12;100.00;101455.88;5094143;28;20469;-78
2022/12/19 03:43:10;;;;;;;42.28;17.80;;;;;;;2.15;100.00;101442.63;5094381;28;20032;-78
2022/12/19 03:45:38;;;;;;;40.38;17.88;;;;;;;2.18;100.00;101455.59;5094163;28;20484;-78
2022/12/19 03:48:14;;;;;;;34.35;17.00;;;;;;;2.18;100.00;101457.34;5093828;28;20051;-78
2022/12/19 03:50:49;;;;;;;38.95;17.80;;;;;;;2.18;100.00;101459.97;5093894;28;20067;-78
2022/12/19 03:53:29;;;;;;;36.00;17.45;;;;;;;2.23;100.00;101455.41;5094055;28;20024;-78
2022/12/19 03:56:09;;;;;;;39.55;17.70;;;;;;;2.37;100.00;101455.59;5093492;28;20028;-78
2022/12/19 03:58:38;;;;;;;38.15;16.55;;;;;;;2.55;100.00;101445.16;5094638;28;20038;-77
2022/12/19 04:01:05;;;;;;;30.45;15.93;;;;;;;2.60;100.00;101458.94;5093512;28;20436;-77
2022/12/19 04:03:31;;;;;;;32.67;15.23;;;;;;;2.61;100.00;101447.50;5093265;28;20134;-77
2022/12/19 04:05:59;;;;;;;28.35;15.05;;;;;;;2.64;100.00;101437.69;5094059;28;20552;-80
2022/12/19 04:08:27;;;;;;;35.38;15.32;;;;;;;2.72;100.00;101437.34;5093723;28;20138;-79
2022/12/19 04:10:58;;;;;;;31.50;14.75;;;;;;;2.79;100.00;101435.25;5093578;28;20032;-78
2022/12/19 04:13:36;;;;;;;31.10;15.13;;;;;;;2.91;100.00;101437.31;5094395;28;20059;-80
2022/12/19 04:16:15;;;;;;;30.30;14.95;;;;;;;3.00;100.00;101446.47;5093186;28;20563;-78
2022/12/19 04:18:46;;;;;;;28.25;14.15;;;;;;;2.98;100.00;101443.94;5093798;28;20028;-79
2022/12/19 04:21:17;;;;;;;31.27;14.73;;;;;;;3.04;100.00;101419.13;5093431;28;20449;-78
2022/12/19 04:23:50;;;;;;;29.92;13.65;;;;;;;3.08;100.00;101436.47;5093299;28;20024;-78
2022/12/19 04:26:18;;;;;;;31.23;15.02;;;;;;;3.07;100.00;101424.22;5093736;28;20110;-79
2022/12/19 04:28:55;;;;;;;30.35;14.10;;;;;;;3.08;100.00;101456.66;5093306;28;20054;-78
2022/12/19 04:31:21;;;;;;;27.10;14.93;;;;;;;3.18;100.00;101442.97;5093393;28;20028;-78
2022/12/19 04:33:47;;;;;;;30.00;14.75;;;;;;;3.26;100.00;101436.47;5093484;28;20036;-78
2022/12/19 04:36:12;;;;;;;24.80;13.27;;;;;;;3.35;100.00;101436.84;5092997;28;20043;-77
2022/12/19 04:38:37;;;;;;;24.50;13.25;;;;;;;3.33;100.00;101446.59;5093208;28;20055;-78
2022/12/19 04:41:03;;;;;;;22.45;12.52;;;;;;;3.33;100.00;101435.25;5093573;28;20111;-78
2022/12/19 04:43:28;;;;;;;25.25;12.57;;;;;;;3.42;100.00;101424.25;5093007;28;20107;-78
2022/12/19 04:45:55;;;;;;;18.85;11.93;;;;;;;3.41;100.00;101429.59;5092869;28;20036;-77
2022/12/19 04:48:20;;;;;;;21.92;11.90;;;;;;;3.49;100.00;101440.56;5093130;28;20032;-78
2022/12/19 04:50:45;;;;;;;20.17;11.65;;;;;;;3.59;100.00;101431.25;5093187;28;20036;-78
2022/12/19 04:53:11;;;;;;;23.05;11.63;;;;;;;3.59;100.00;101428.63;5093050;28;20028;-79
2022/12/19 04:55:36;;;;;;;23.35;12.38;;;;;;;3.59;100.00;101435.69;5093058;28;20032;-78
2022/12/19 04:58:05;;;;;;;22.88;13.20;;;;;;;3.65;100.00;101436.19;5093009;28;20033;-79
2022/12/19 05:00:30;;;;;;;24.05;13.18;;;;;;;3.66;100.00;101416.03;5092810;28;20456;-80
2022/12/19 05:02:55;;;;;;;27.50;13.95;;;;;;;3.67;100.00;101423.84;5075197;28;20046;-78
2022/12/19 05:05:21;;;;;;;26.17;13.75;;;;;;;3.64;100.00;101417.84;5093313;28;20157;-79
2022/12/19 05:07:46;;;;;;;23.10;13.35;;;;;;;3.68;100.00;101411.50;5093578;28;20055;-78
2022/12/19 05:10:12;;;;;;;25.20;13.68;;;;;;;3.76;100.00;101427.75;5093301;28;20047;-79
2022/12/19 05:12:40;;;;;;;32.88;15.23;;;;;;;3.83;100.00;101401.97;5093354;28;20044;-79
2022/12/19 05:15:05;;;;;;;32.33;14.85;;;;;;;3.86;100.00;101413.16;5092848;28;20032;-79
2022/12/19 05:17:31;;;;;;;28.48;14.90;;;;;;;3.87;100.00;101398.22;5092867;28;20035;-78
2022/12/19 05:19:56;;;;;;;28.02;14.15;;;;;;;3.96;100.00;101402.16;5092455;28;20036;-79
2022/12/19 05:22:22;;;;;;;25.85;14.57;;;;;;;3.98;100.00;101408.19;5092959;28;20083;-79
2022/12/19 05:24:47;;;;;;;26.58;14.82;;;;;;;3.97;100.00;101403.84;5092926;28;20465;-79
2022/12/19 05:27:12;;;;;;;22.73;13.82;;;;;;;3.97;100.00;101401.22;5092398;28;20032;-79
2022/12/19 05:29:38;;;;;;;29.20;15.32;;;;;;;3.96;100.00;101415.31;5092756;28;20056;-79
2022/12/19 05:32:03;;;;;;;28.60;16.17;;;;;;;4.03;100.00;101424.56;5093032;28;20108;-80
2022/12/19 05:34:29;;;;;;;27.58;14.88;;;;;;;4.03;100.00;101414.03;5097116;28;20040;-80
2022/12/19 05:36:54;;;;;;;30.77;15.77;;;;;;;4.02;100.00;101418.47;5096429;28;20036;-80
2022/12/19 05:39:19;;;;;;;30.10;15.52;;;;;;;4.01;100.00;101414.13;5096993;28;20418;-79
2022/12/19 05:41:45;;;;;;;24.65;14.73;;;;;;;3.97;100.00;101407.34;5096944;28;20025;-80
2022/12/19 05:44:10;;;;;;;31.27;16.05;;;;;;;3.99;100.00;101417.78;5096687;28;20036;-79
2022/12/19 05:46:35;;;;;;;31.25;15.35;;;;;;;4.01;100.00;101405.38;5096318;28;20032;-80
2022/12/19 05:49:01;;;;;;;33.67;16.30;;;;;;;4.06;100.00;101406.84;5096898;28;20024;-80
2022/12/19 05:51:26;;;;;;;35.00;16.73;;;;;;;4.08;100.00;101412.03;5096633;28;20440;-80
2022/12/19 05:53:51;;;;;;;28.15;14.88;;;;;;;4.09;100.00;101400.56;5096835;28;20516;-80
2022/12/19 05:56:20;;;;;;;36.47;15.93;;;;;;;4.20;100.00;101402.59;5077954;28;20028;-80
2022/12/19 05:58:46;;;;;;;31.48;15.55;;;;;;;4.20;100.00;101405.25;5096387;28;20060;-79
2022/12/19 06:01:18;;;;;;;25.67;14.98;;;;;;;4.27;100.00;101406.59;5096011;28;20028;-79
2022/12/19 06:03:44;;;;;;;26.25;15.07;;;;;;;4.29;100.00;101403.88;5075030;28;20053;-81
2022/12/19 06:06:12;;;;;;;24.10;13.95;;;;;;;4.40;100.00;101409.41;5075891;28;20086;-80
2022/12/19 06:08:38;;;;;;;24.23;13.48;;;;;;;4.46;100.00;101397.66;5075790;28;20524;-80
2022/12/19 06:11:05;;;;;;;25.10;14.05;;;;;;;4.46;100.00;101398.50;5075578;28;20170;-80
2022/12/19 06:13:31;;;;;;;27.23;14.00;;;;;;;4.50;100.00;101405.31;5074407;28;20083;-80
2022/12/19 06:16:16;;;;;;;25.38;15.02;;;;;;;4.50;100.00;101397.41;5075421;28;20032;-80
2022/12/19 06:18:43;;;;;;;26.20;14.60;;;;;;;4.43;100.00;101396.06;5075097;28;20055;-80
2022/12/19 06:21:14;;;;;;;28.80;14.63;;;;;;;4.48;100.00;101403.69;5075477;28;20035;-80
2022/12/19 06:23:40;;;;;;;21.92;13.73;;;;;;;4.47;100.00;101397.59;5075714;28;20040;-79
2022/12/19 06:26:07;;;;;;;25.23;14.07;;;;;;;4.51;100.00;101399.13;5075227;28;20477;-79
2022/12/19 06:28:34;;;;;;;25.30;13.77;;;;;;;4.53;100.00;101405.16;5075493;28;20104;-79
2022/12/19 06:31:02;;;;;;;28.73;14.32;;;;;;;4.63;100.00;101407.25;5075324;28;20036;-80
2022/12/19 06:33:29;;;;;;;26.83;14.57;;;;;;;4.66;100.00;101413.22;5074888;28;20067;-80
2022/12/19 06:36:02;;;;;;;24.67;14.18;;;;;;;4.69;100.00;101402.50;5075961;28;20086;-81
2022/12/19 06:38:28;;;;;;;30.35;15.65;;;;;;;4.70;100.00;101412.13;5075737;28;20476;-81
2022/12/19 06:43:38;;;;;;;25.60;13.38;;;;;;;4.81;100.00;101397.44;5074837;28;20503;-81
2022/12/19 06:46:04;;;;;;;27.00;13.70;;;;;;;4.77;100.00;101402.06;5074425;28;20028;-81
2022/12/19 06:48:29;;;;;;;24.77;12.27;;;;;;;4.74;100.00;101404.88;5074893;28;20066;-80
2022/12/19 06:50:55;;;;;;;22.38;12.25;;;;;;;4.71;100.00;101411.16;5074982;28;20024;-80
2022/12/19 06:53:20;;;;;;;20.85;11.15;;;;;;;4.73;100.00;101411.94;5075488;28;20496;-80
2022/12/19 06:55:47;;;;;;;25.73;12.43;;;;;;;4.74;100.00;101410.97;5075070;28;20032;-80
2022/12/19 06:58:12;;;;;;;21.80;10.98;;;;;;;4.72;100.00;101417.31;5074919;28;20055;-80
2022/12/19 07:00:37;;;;;;;21.17;11.00;;;;;;;4.75;100.00;101414.50;5074877;28;20056;-81
2022/12/19 07:03:06;;;;;;;26.38;11.13;;;;;;;4.79;100.00;101418.63;5075052;28;20071;-81
2022/12/19 07:05:32;;;;;;;20.02;10.80;;;;;;;4.79;100.00;101420.44;5094362;28;20051;-81
2022/12/19 07:07:57;;;;;;;16.95;10.10;;;;;;;4.79;100.00;101417.78;5095050;28;20066;-80
2022/12/19 07:10:23;;;;;;;20.52;10.27;;;;;;;4.81;100.00;101408.88;5095180;28;20059;-80
2022/12/19 07:12:48;;;;;;;15.38;9.40;;;;;;;4.83;100.00;101421.97;5094396;28;20487;-80
2022/12/19 07:15:13;;;;;;;15.80;9.38;;;;;;;4.77;100.00;101437.16;5076334;28;20119;-82
2022/12/19 07:17:39;;;;;;;15.18;9.45;;;;;;;4.77;100.00;101425.78;5094464;28;20067;-81
2022/12/19 07:20:05;;;;;;;18.50;9.18;;;;;;;4.77;100.00;101441.59;5094498;28;20388;-80
2022/12/19 07:22:33;;;;;;;14.15;9.15;;;;;;;4.73;100.00;101430.41;5076180;28;20028;-81
2022/12/19 07:25:00;;;;;;;15.15;8.65;;;;;;;4.77;100.00;101424.00;5094457;28;20084;-80
2022/12/19 07:27:27;;;;;;;18.45;9.68;;;;;;;4.77;100.00;101428.41;5094315;28;20028;-81
2022/12/19 07:29:52;;;;;;;18.15;8.95;;;;;;;4.83;100.00;101435.16;5094306;28;20475;-80
2022/12/19 07:32:17;;;;;;;16.33;9.25;;;;;;;4.83;100.00;101438.63;5094238;28;20032;-80
2022/12/19 07:34:43;;;;;;;14.98;8.20;;;;;;;4.83;100.00;101433.34;5094266;28;20388;-79
2022/12/19 07:37:08;;;;;;;16.35;8.73;;;;;;;4.87;100.00;101445.44;5094234;28;20383;-80
2022/12/19 07:39:33;;;;;;;17.73;8.90;;;;;;;4.88;100.00;101435.72;5094082;28;20555;-80
2022/12/19 07:41:59;;;;;;;18.70;8.25;;;;;;;4.85;100.00;101435.91;5075923;28;20042;-81
2022/12/19 07:44:24;;;;;;;16.30;8.82;;;;;;;4.81;100.00;101442.28;5094589;28;20039;-80
2022/12/19 07:46:49;;;;;;;14.30;8.60;;;;;;;4.83;100.00;101450.97;5094198;28;20043;-79
2022/12/19 07:49:15;;;;;;;15.95;8.65;;;;;;;4.81;100.00;101448.41;5075907;28;20035;-80
2022/12/19 07:51:40;;;;;;;12.90;7.75;;;;;;;4.83;100.00;101446.53;5093817;28;20076;-79
2022/12/19 07:54:05;;;;;;;14.63;9.07;;;;;;;4.86;100.00;101449.00;5093793;28;20392;-77
2022/12/19 07:56:31;;;;;;;16.90;8.52;;;;;;;4.93;100.00;101454.78;5093745;28;20032;-78
2022/12/19 07:58:56;;;;;;;15.02;8.15;;;;;;;4.91;100.00;101452.22;5093935;28;20051;-78
2022/12/19 08:01:21;;;;;;;14.52;7.65;;;;;;;4.88;100.00;101465.59;5093408;28;20043;-78
2022/12/19 08:03:47;;;;;;;15.70;8.30;;;;;;;4.87;100.00;101463.88;5093237;28;20477;-78
2022/12/19 08:06:12;;;;;;;12.20;8.50;;;;;;;4.94;100.00;101470.50;5093821;28;20024;-78
2022/12/19 08:08:37;;;;;;;14.57;7.78;;;;;;;4.98;100.00;101468.53;5093430;28;20058;-76
2022/12/19 08:11:16;;;;;;;13.45;7.43;;;;;;;4.97;100.00;101466.00;5093237;28;20346;-79
2022/12/19 08:13:42;;;;;;;13.63;7.97;;;;;;;4.97;100.00;101463.34;5093497;28;20056;-76
2022/12/19 08:16:07;;;;;;;15.77;8.52;;;;;;;4.97;100.00;101471.25;5093512;28;20035;-78
2022/12/19 08:18:32;;;;;;;12.68;8.30;;;;;;;4.99;100.00;101479.97;5092782;28;20028;-78
2022/12/19 08:20:58;;;;;;;11.13;7.28;;;;;;;5.01;100.00;101475.44;5093159;28;20516;-78
2022/12/19 08:23:24;;;;;;;14.88;8.05;;;;;;;4.99;100.00;101477.31;5093266;28;20402;-77
2022/12/19 08:26:02;;;;;;;11.45;7.47;;;;;;;4.95;100.00;101466.09;5094176;28;20369;-78
2022/12/19 08:28:28;;;;;;;11.25;7.53;;;;;;;4.97;100.00;101466.00;5093417;28;20081;-77
2022/12/19 08:30:54;;;;;;;13.77;7.80;;;;;;;4.98;100.00;101473.81;5093134;28;20032;-77
2022/12/19 08:33:19;;;;;;;19.35;8.15;;;;;;;5.00;100.00;101486.91;5075190;28;20524;-77
2022/12/19 08:35:45;;;;;;;16.92;8.07;;;;;;;5.00;100.00;101489.56;5092908;28;20035;-76
2022/12/19 08:38:10;;;;;;;15.00;7.88;;;;;;;5.02;100.00;101485.06;5092733;28;20505;-76
2022/12/19 08:40:35;;;;;;;13.05;7.22;;;;;;;5.06;100.00;101484.78;5092687;28;20032;-80
2022/12/19 08:43:01;;;;;;;11.35;7.85;;;;;;;5.03;100.00;101484.97;5092818;28;20035;-77
2022/12/19 08:45:26;;;;;;;12.35;7.70;;;;;;;5.14;100.00;101487.00;5093016;28;20111;-78
2022/12/19 08:47:51;;;;;;;10.50;7.07;;;;;;;5.13;100.00;101487.91;5092864;28;20056;-78
2022/12/19 08:50:17;;;;;;;14.15;7.38;;;;;;;5.18;100.00;101482.38;5092972;28;20035;-79
2022/12/19 08:52:42;;;;;;;15.60;7.38;;;;;;;5.17;100.00;101489.44;5092648;28;20047;-78
2022/12/19 08:55:09;;;;;;;12.10;6.97;;;;;;;5.14;100.00;101484.34;5093059;28;20111;-77
2022/12/19 08:57:34;;;;;;;12.40;6.80;;;;;;;5.11;100.00;101485.38;5092531;28;20032;-78
2022/12/19 08:59:59;;;;;;;11.25;7.07;;;;;;;5.15;100.00;101479.91;5092573;28;20157;-78
2022/12/19 09:02:25;;;;;;;11.73;6.78;;;;;;;5.20;100.00;101478.72;5092502;28;20029;-79
2022/12/19 09:04:50;;;;;;;10.50;7.07;;;;;;;5.21;100.00;101476.91;5092806;28;20100;-78
2022/12/19 09:07:16;;;;;;;11.63;6.40;;;;;;;5.27;100.00;101495.91;5093705;28;20035;-79
2022/12/19 09:09:43;;;;;;;8.85;6.25;;;;;;;5.25;100.00;101474.00;5096677;28;20499;-79
2022/12/19 09:12:08;;;;;;;11.43;6.45;;;;;;;5.32;100.00;101484.22;5096659;28;20125;-78
2022/12/19 09:14:34;;;;;;;11.88;7.32;;;;;;;5.38;100.00;101486.50;5096484;28;20028;-79
2022/12/19 09:17:00;;;;;;;12.55;7.53;;;;;;;5.38;100.00;101489.16;5096786;28;20036;-78
2022/12/19 09:19:26;;;;;;;19.98;11.82;;;;;;;5.46;100.00;101492.19;5096614;28;20032;-80
2022/12/19 09:21:51;;;;;;;17.98;10.38;;;;;;;5.49;100.00;101486.72;5096436;28;20368;-79
2022/12/19 09:24:17;;;;;;;9.73;6.60;;;;;;;5.54;100.00;101487.31;5096415;28;20055;-79
2022/12/19 09:26:43;;;;;;;10.10;6.30;;;;;;;5.54;100.00;101489.09;5096001;28;20040;-77
2022/12/19 09:29:09;;;;;;;8.85;6.00;;;;;;;5.50;100.00;101491.06;5096035;28;20035;-77
2022/12/19 09:31:34;;;;;;;9.07;6.18;;;;;;;5.55;100.00;101493.44;5096550;28;20036;-80
2022/12/19 09:33:59;;;;;;;11.30;5.88;;;;;;;5.50;100.00;101485.78;5096051;28;20499;-77
2022/12/19 09:36:25;;;;;;;11.27;6.28;;;;;;;5.50;100.00;101495.50;5078259;28;20097;-77
2022/12/19 09:38:55;;;;;;;8.18;6.50;;;;;;;5.50;100.00;101508.69;5096023;28;20473;-79
2022/12/19 09:41:48;;;;;;;10.93;6.47;;;;;;;5.54;100.00;101492.59;5096234;28;20062;-79
2022/12/19 09:44:43;;;;;;;11.93;6.63;;;;;;;5.57;100.00;101491.53;5096241;28;20456;-76
2022/12/19 09:47:18;;;;;;;9.30;6.07;;;;;;;5.60;100.00;101494.03;5096565;28;20047;-80
2022/12/19 09:49:46;;;;;;;11.07;6.32;;;;;;;5.61;100.00;101495.69;5096096;28;20028;-78
2022/12/19 09:52:16;;;;;;;10.35;6.07;;;;;;;5.62;100.00;101497.41;5095968;28;20554;-78
2022/12/19 09:55:10;;;;;;;8.55;6.18;;;;;;;5.67;100.00;101487.41;5096108;28;20145;-76
2022/12/19 09:57:45;;;;;;;8.43;5.90;;;;;;;5.69;100.00;101496.13;5096636;28;20517;-77
2022/12/19 10:00:13;;;;;;;11.07;6.05;;;;;;;5.73;100.00;101495.00;5095783;28;20154;-77
2022/12/19 10:03:21;;;;;;;12.65;7.28;;;;;;;5.76;100.00;101492.16;5095993;28;20510;-76
2022/12/19 10:06:02;;;;;;;13.27;5.95;;;;;;;5.85;100.00;101503.09;5096439;28;20036;-79
2022/12/19 10:08:34;;;;;;;7.75;5.60;;;;;;;5.86;100.00;101491.63;5096386;28;20159;-77
2022/12/19 10:11:15;;;;;;;7.25;5.10;;;;;;;5.88;100.00;101484.44;5095867;28;20506;-77
2022/12/19 10:13:52;;;;;;;9.43;5.70;;;;;;;5.89;100.00;101478.22;5095893;28;20039;-79
2022/12/19 10:16:23;;;;;;;7.15;5.45;;;;;;;5.91;100.00;101487.75;5095729;28;20043;-78
2022/12/19 10:18:56;;;;;;;7.93;5.03;;;;;;;5.93;100.00;101483.22;5094974;28;20036;-77
2022/12/19 10:21:57;;;;;;;8.00;5.55;;;;;;;5.97;100.00;101486.53;5096126;28;20067;-77
2022/12/19 10:24:23;;;;;;;9.57;5.10;;;;;;;5.97;100.00;101500.63;5096004;28;20032;-79
2022/12/19 10:26:53;;;;;;;9.27;5.25;;;;;;;6.01;100.00;101496.00;5095366;28;20357;-80
2022/12/19 10:29:42;;;;;;;8.18;4.88;;;;;;;6.02;100.00;101504.75;5095447;28;20030;-77
2022/12/19 10:32:19;;;;;;;6.68;4.95;;;;;;;6.03;100.00;101495.91;5095929;28;20444;-78
2022/12/19 10:34:47;;;;;;;7.88;5.03;;;;;;;5.99;100.00;101496.09;5096002;28;20054;-80
2022/12/19 10:37:21;;;;;;;8.43;5.00;;;;;;;6.01;100.00;101485.41;5095699;28;20039;-81
2022/12/19 10:40:13;;;;;;;9.73;5.30;;;;;;;6.01;100.00;101493.34;5095667;28;20103;-81
2022/12/19 10:43:03;;;;;;;6.80;4.60;;;;;;;5.99;100.00;101484.69;5096001;28;20024;-78
2022/12/19 10:45:38;;;;;;;5.13;4.40;;;;;;;5.99;100.00;101488.16;5095719;28;20032;-79
2022/12/19 10:48:03;;;;;;;5.90;4.15;;;;;;;6.02;100.00;101489.78;5095365;28;20255;-76
2022/12/19 10:50:29;;;;;;;8.18;5.07;;;;;;;6.02;100.00;101483.63;5076910;28;20039;-77
2022/12/19 10:53:09;;;;;;;8.38;4.90;;;;;;;6.03;100.00;101477.41;5095276;28;20353;-78
2022/12/19 10:55:43;;;;;;;8.80;4.80;;;;;;;6.07;100.00;101474.47;5095227;28;20032;-77
2022/12/19 10:58:50;;;;;;;7.85;5.03;;;;;;;6.10;100.00;101479.56;5095616;28;20047;-78
2022/12/19 11:01:28;;;;;;;6.32;4.80;;;;;;;6.13;100.00;101467.97;4993134;28;20087;-77
2022/12/19 11:04:19;;;;;;;8.68;4.55;;;;;;;6.17;100.00;101477.41;4992855;28;20058;-77
2022/12/19 11:07:01;;;;;;;9.20;4.72;;;;;;;6.23;100.00;101484.97;5046137;28;20063;-78
2022/12/19 11:09:29;;;;;;;6.63;4.32;;;;;;;6.29;100.00;101484.56;5094982;28;20380;-77
2022/12/19 11:12:05;;;;;;;6.68;4.68;;;;;;;6.29;100.00;101471.34;5094686;28;20097;-78
2022/12/19 11:14:31;;;;;;;11.52;4.70;;;;;;;6.32;100.00;101476.44;5094524;28;20028;-77
2022/12/19 11:16:56;;;;;;;5.30;4.25;;;;;;;6.37;100.00;101468.22;5095132;28;20043;-78
2022/12/19 11:19:36;;;;;;;4.88;4.30;;;;;;;6.42;100.00;101476.75;5094648;28;20057;-78
2022/12/19 11:22:27;;;;;;;8.05;4.50;;;;;;;6.45;100.00;101479.19;5094425;28;20364;-77
2022/12/19 11:24:54;;;;;;;8.05;4.50;;;;;;;6.49;100.00;101474.53;5080259;28;20051;-78